Thursday, July 31, 2014
09:34 UTC
  |  Log In   |  Register Free
Airport Search:

Olympia Regional Airport
(KOLM)

Olympia Regional Airport Diagram
No Airport Diagram Available

Airport information sponsored by:
Glacier Jet Center at Olympia Regional (KOLM), Olympia, WA
FAA data valid effective July 24, 2014 until September 18, 2014 (unless otherwise noted).

 
 
 
 
 
 
 
 
 
 
 
 
 
 

Current Aviation Weather for Olympia Regional Airport (KOLM)

The most recent METAR observation for KOLM was updated at: 1754 UTC
METAR Summary (Translated METAR)
KOLM
281754Z VRB05KT 10SM CLR 25/12 A3012 RMK AO2 SLP197 T02500122 10250 20094 58005
KGRF
(14.7 nm NE from KOLM)
281558Z AUTO 00000KT 10SM CLR 20/12 A3013 RMK AO2 SLP205 T02040121 PWINO $
TAF Summary (Translated TAF)
KOLM
310520Z 3106/0106 VRB03KT P6SM SKC FM312000 02007KT P6SM SCT250
KGRF
(14.7 nm NE from KOLM)
3105/0111 VRB05KT 9999 SKC QNH3006INS BECMG 3121/3122 33010KT 9999 SKC QNH3004INS BECMG 0103/0104 VRB05KT 9999 SKC QNH3000INS TX27/0100Z TN19/0109Z
  Airport Weather Conditions for KOLM

 Current Weather at OLM
58° F
Fair
South winds at 3.5 mph
OLM NOAA Radar

Pressure: 30.11 in
Humidity: 81%
Wind: South at 3.5 MPH (3 KT)
Dew Point: 52.0°F
Visibility: 10.00 mi


Airport Weather Forecast for KOLM

Translated METAR and TAF for KOLM
Translated METAR for KOLM (0927 UTC 31 July 2014)
found at http://aviationweather.gov/adds/metars/
 
METAR text: KOLM 310854Z AUTO 17003KT 10SM CLR 14/11 A3011 RMK AO2 SLP194 T01440111 51007
Conditions at: KOLM (OLYMPIA , WA, US) observed 0854 UTC 31 July 2014
Temperature: 14.4°C (58°F)
Dewpoint: 11.1°C (52°F) [RH = 81%]
Pressure (altimeter): 30.11 inches Hg (1019.7 mb)
[Sea-level pressure: 1019.4 mb]
Winds: from the S (170 degrees) at 3 MPH (3 knots; 1.6 m/s)
Visibility: 10 or more miles (16+ km)
Ceiling: at least 12,000 feet AGL
Clouds: sky clear below 12,000 feet AGL
Weather: automated observation with no human augmentation;
there may or may not be significant weather present at this time
Translated TAF for KOLM
Forecast for: KOLM (OLYMPIA , WA, US)
TAF Text: KOLM 310520Z 3106/0106 VRB03KT P6SM SKC
Forecast period: 0600 to 2000 UTC 31 July 2014
Forecast type: FROM: standard forecast or significant change
Winds: variable direction winds at 3 MPH (3 knots; 1.6 m/s)
Visibility: 6 or more miles (10+ km)
Clouds: clear skies
Weather: no significant weather forecast for this period
TAF Text: FM312000 02007KT P6SM SCT250
Forecast period: 2000 UTC 31 July 2014 to 0600 UTC 01 August 2014
Forecast type: FROM: standard forecast or significant change
Winds: from the NNE (20 degrees) at 8 MPH (7 knots; 3.6 m/s)
Visibility: 6 or more miles (10+ km)
Clouds: scattered clouds at 25000 feet AGL
Weather: no significant weather forecast for this period

Find All Airport Services Find A Hotel Find A Rental Car Find A Golf Course Find A Restaurant $100 Hamburger



FBO's on the Field
FBO Company Facility Photos Services Transportation Aviation Fuel Prices: Prices include tax
Catering Weather Repair Courtesy Rental Type 100LL JetA JetA+ MOGAS 8087
 
Glacier Jet Center

Glacier Jet Center logo
This FBO has not yet been rated
FS:
Last Updated: Jul-02
Login to update fuel prices
SS:
Contact Glacier Jet CenterMore FBO Information
 
Jorgensen Air Service

Jorgensen Air Service logo
Currently rated 4.7 by 3 people
FS:
Last Updated: Jul-13
Login to update fuel prices
SS:
Contact Jorgensen Air ServiceMore FBO Information
 
Add another FBO Facility Photos Catering Weather Repair Courtesy Rental Type 100LL JetA JetA+ MOGAS 8087
Services Transportation Aviation Fuel Prices: Prices include tax


GlobalAir.com Airport Resource Center model-print
model-print
model-print
model-print